createdAt,value
2022-10-22T00:03:25.661Z,99927.31
2022-10-22T00:08:28.048Z,99933.34
2022-10-22T00:13:29.625Z,99922.81
2022-10-22T00:18:31.037Z,99908.13
2022-10-22T00:23:32.468Z,99901.03
2022-10-22T00:28:33.861Z,99903.75
2022-10-22T00:33:35.236Z,99892.28
2022-10-22T00:38:36.687Z,99897.50
2022-10-22T00:44:04.425Z,99895.94
2022-10-22T00:49:05.883Z,99887.13
2022-10-22T00:54:08.734Z,99877.94
2022-10-22T00:59:13.498Z,99870.03
2022-10-22T01:04:14.964Z,99876.50
2022-10-22T01:09:19.014Z,99879.53
2022-10-22T01:14:41.263Z,99890.53
2022-10-22T01:20:15.952Z,99895.59
2022-10-22T01:25:31.046Z,99905.31
2022-10-22T01:30:34.006Z,99915.25
2022-10-22T01:35:42.539Z,99920.81
2022-10-22T01:40:45.404Z,99923.91
2022-10-22T01:45:50.032Z,99918.25
2022-10-22T01:51:13.310Z,99915.31
2022-10-22T01:56:36.173Z,99915.47
2022-10-22T02:01:50.193Z,99916.72
2022-10-22T02:06:55.386Z,99915.81
2022-10-22T02:11:59.577Z,99918.00
2022-10-22T02:17:01.540Z,99923.69
2022-10-22T02:22:03.841Z,99918.03
2022-10-22T02:27:16.718Z,99922.97
2022-10-22T02:32:21.706Z,99933.00
2022-10-22T02:37:25.764Z,99931.63
2022-10-22T02:42:28.623Z,99930.09
2022-10-22T02:47:30.010Z,99934.44
2022-10-22T02:52:31.378Z,99954.50
2022-10-22T02:57:32.987Z,99956.03
2022-10-22T03:02:34.610Z,99946.97
2022-10-22T03:07:35.992Z,99952.13
2022-10-22T03:12:37.395Z,99949.06
2022-10-22T03:17:39.167Z,99954.78
2022-10-22T03:22:42.749Z,99955.44
2022-10-22T03:27:45.236Z,99959.63
2022-10-22T03:32:46.622Z,99960.94
2022-10-22T03:37:48.204Z,99949.19
2022-10-22T03:42:49.672Z,99957.34
2022-10-22T03:47:51.031Z,99967.97
2022-10-22T03:52:53.296Z,99977.06
2022-10-22T03:57:54.646Z,99964.75
2022-10-22T04:02:56.072Z,99967.22
2022-10-22T04:07:57.419Z,99996.88
2022-10-22T04:12:58.768Z,99993.81
2022-10-22T04:18:00.128Z,100001.72
2022-10-22T04:23:01.465Z,99999.06
2022-10-22T04:28:02.966Z,100017.53
2022-10-22T04:33:04.318Z,100021.28
2022-10-22T04:38:05.723Z,100025.91
2022-10-22T04:43:07.120Z,100035.06
2022-10-22T04:48:08.588Z,100036.13
2022-10-22T04:53:09.926Z,100039.06
2022-10-22T04:58:11.258Z,100034.53
2022-10-22T05:03:12.679Z,100032.50
2022-10-22T05:08:14.018Z,100032.53
2022-10-22T05:13:15.368Z,100040.06
2022-10-22T05:18:19.004Z,100050.91
2022-10-22T05:23:23.286Z,100050.91
2022-10-22T05:28:24.721Z,100058.03
2022-10-22T05:33:27.322Z,100065.13
2022-10-22T05:38:28.954Z,100068.28
2022-10-22T05:43:30.858Z,100070.97
2022-10-22T05:53:41.488Z,100084.63
2022-10-22T05:58:44.395Z,100092.78
2022-10-22T06:03:46.981Z,100101.53
2022-10-22T06:08:50.616Z,100104.97
2022-10-22T06:13:52.335Z,100113.94
2022-10-22T06:18:53.696Z,100108.72
2022-10-22T06:23:59.395Z,100106.06
2022-10-22T06:29:00.807Z,100115.09
2022-10-22T06:34:13.228Z,100125.34
2022-10-22T06:39:16.925Z,100121.81
2022-10-22T06:44:20.141Z,100129.78
2022-10-22T06:49:21.752Z,100136.25
2022-10-22T06:54:23.524Z,100146.72
2022-10-22T06:59:24.959Z,100144.81
2022-10-22T07:04:26.359Z,100156.53
2022-10-22T07:09:27.758Z,100170.06
2022-10-22T07:14:29.131Z,100179.81
2022-10-22T07:19:31.417Z,100190.03
2022-10-22T07:24:32.781Z,100194.78
2022-10-22T07:29:34.735Z,100200.16
2022-10-22T07:34:37.597Z,100207.19
2022-10-22T07:39:40.862Z,100215.59
2022-10-22T07:44:42.246Z,100219.75
2022-10-22T07:49:43.612Z,100225.38
2022-10-22T07:54:44.975Z,100251.50
2022-10-22T07:59:46.340Z,100250.81
2022-10-22T08:04:47.677Z,100254.16
2022-10-22T08:09:49.307Z,100254.50
2022-10-22T08:14:50.829Z,100261.34
2022-10-22T08:19:52.189Z,100261.28
2022-10-22T08:24:53.572Z,100250.66
2022-10-22T08:29:55.000Z,100262.25
2022-10-22T08:34:56.559Z,100274.16
2022-10-22T08:39:57.926Z,100270.78
2022-10-22T08:45:25.329Z,100274.06
2022-10-22T08:50:51.589Z,100284.41
2022-10-22T08:55:54.372Z,100288.38
2022-10-22T09:00:59.975Z,100295.00
2022-10-22T09:06:23.978Z,100302.16
2022-10-22T09:11:35.582Z,100303.75
2022-10-22T09:16:55.556Z,100308.19
2022-10-22T09:22:16.731Z,100305.16
2022-10-22T09:27:21.446Z,100309.88
2022-10-22T09:32:23.142Z,100309.31
2022-10-22T09:37:29.866Z,100315.34
2022-10-22T09:42:33.239Z,100319.19
2022-10-22T09:48:01.043Z,100328.34
2022-10-22T09:53:21.785Z,100325.19
2022-10-22T09:58:23.310Z,100338.69
2022-10-22T10:03:28.263Z,100340.50
2022-10-22T10:08:29.996Z,100338.88
2022-10-22T10:13:46.347Z,100327.69
2022-10-22T10:19:11.982Z,100339.28
2022-10-22T10:24:47.228Z,100334.13
2022-10-22T10:29:56.688Z,100337.31
2022-10-22T10:35:06.785Z,100344.34
2022-10-22T10:40:43.755Z,100342.25
2022-10-22T10:46:03.746Z,100331.75
2022-10-22T10:51:35.470Z,100337.84
2022-10-22T10:56:56.563Z,100334.63
2022-10-22T11:02:35.331Z,100331.66
2022-10-22T11:07:41.667Z,100333.53
2022-10-22T11:12:48.786Z,100323.16
2022-10-22T11:17:52.966Z,100321.00
2022-10-22T11:23:19.376Z,100319.34
2022-10-22T11:28:44.606Z,100320.72
2022-10-22T11:34:04.689Z,100327.53
2022-10-22T11:39:51.101Z,100332.03
2022-10-22T11:45:06.386Z,100330.53
2022-10-22T11:50:26.138Z,100332.34
2022-10-22T11:55:45.955Z,100329.81
2022-10-22T12:00:48.527Z,100333.66
2022-10-22T12:06:05.348Z,100325.81
2022-10-22T12:11:36.316Z,100327.25
2022-10-22T12:22:06.758Z,100317.25
2022-10-22T12:27:23.245Z,100308.56
2022-10-22T12:32:34.801Z,100306.38
2022-10-22T12:37:37.181Z,100309.00
2022-10-22T12:42:38.573Z,100298.66
2022-10-22T12:47:40.364Z,100308.41
2022-10-22T12:52:42.346Z,100308.19
2022-10-22T12:57:47.206Z,100302.38
2022-10-22T13:02:49.076Z,100302.69
2022-10-22T13:08:01.482Z,100301.56
2022-10-22T13:13:04.064Z,100309.00
2022-10-22T13:18:18.831Z,100307.00
2022-10-22T13:23:22.799Z,100315.75
2022-10-22T13:28:24.994Z,100310.84
2022-10-22T13:33:42.378Z,100304.88
2022-10-22T13:38:44.669Z,100304.09
2022-10-22T13:43:46.174Z,100302.84
2022-10-22T13:48:49.739Z,100302.34
2022-10-22T13:53:52.926Z,100308.69
2022-10-22T13:58:54.946Z,100308.66
2022-10-22T14:04:03.943Z,100305.41
2022-10-22T14:09:08.844Z,100305.22
2022-10-22T14:14:14.290Z,100307.41
2022-10-22T14:19:17.790Z,100315.22
2022-10-22T14:24:19.242Z,100312.66
2022-10-22T14:29:20.639Z,100319.47
2022-10-22T14:34:21.971Z,100313.13
2022-10-22T14:39:23.377Z,100321.53
2022-10-22T14:44:25.420Z,100310.28
2022-10-22T14:49:26.834Z,100313.31
2022-10-22T14:54:28.199Z,100310.22
2022-10-22T14:59:29.659Z,100317.25
2022-10-22T15:04:31.065Z,100320.19
2022-10-22T15:09:32.472Z,100321.97
2022-10-22T15:14:33.884Z,100314.50
2022-10-22T15:19:35.330Z,100316.09
2022-10-22T15:24:37.110Z,100312.03
2022-10-22T15:29:38.485Z,100319.09
2022-10-22T15:34:40.583Z,100326.41
2022-10-22T15:39:42.626Z,100330.78
2022-10-22T15:44:44.476Z,100332.50
2022-10-22T15:49:45.855Z,100337.00
2022-10-22T15:54:47.534Z,100331.25
2022-10-22T15:59:50.058Z,100337.31
2022-10-22T16:04:51.412Z,100337.59
2022-10-22T16:09:57.263Z,100331.06
2022-10-22T16:14:58.632Z,100329.47
2022-10-22T16:19:59.996Z,100332.00
2022-10-22T16:25:01.424Z,100342.66
2022-10-22T16:30:02.998Z,100342.00
2022-10-22T16:35:04.710Z,100338.84
2022-10-22T16:40:08.494Z,100340.66
2022-10-22T16:45:10.704Z,100341.28
2022-10-22T16:50:12.599Z,100340.81
2022-10-22T16:55:14.006Z,100355.13
2022-10-22T17:00:15.744Z,100353.91
2022-10-22T17:05:17.102Z,100357.56
2022-10-22T17:15:28.290Z,100378.66
2022-10-22T17:20:29.823Z,100389.41
2022-10-22T17:25:44.500Z,100397.00
2022-10-22T17:30:45.878Z,100402.38
2022-10-22T17:35:49.250Z,100400.00
2022-10-22T17:40:50.662Z,100401.59
2022-10-22T17:45:52.055Z,100405.84
2022-10-22T17:50:55.757Z,100407.66
2022-10-22T17:56:06.922Z,100421.09
2022-10-22T18:01:36.328Z,100415.78
2022-10-22T18:06:38.159Z,100432.06
2022-10-22T18:11:40.283Z,100426.44
2022-10-22T18:16:42.008Z,100417.88
2022-10-22T18:21:43.401Z,100426.50
2022-10-22T18:26:45.031Z,100427.38
2022-10-22T18:31:47.471Z,100435.38
2022-10-22T18:36:48.948Z,100428.31
2022-10-22T18:41:50.737Z,100425.00
2022-10-22T18:46:52.346Z,100427.75
2022-10-22T18:51:53.695Z,100425.88
2022-10-22T18:56:59.351Z,100410.84
2022-10-22T19:02:03.368Z,100417.34
2022-10-22T19:07:05.482Z,100423.63
2022-10-22T19:12:09.030Z,100420.56
2022-10-22T19:17:10.446Z,100412.44
2022-10-22T19:22:12.010Z,100413.09
2022-10-22T19:27:13.424Z,100414.97
2022-10-22T19:32:16.514Z,100418.94
2022-10-22T19:37:17.876Z,100421.44
2022-10-22T19:42:20.710Z,100432.28
2022-10-22T19:47:22.081Z,100430.84
2022-10-22T19:52:23.534Z,100441.28
2022-10-22T19:57:24.920Z,100434.84
2022-10-22T20:02:26.772Z,100426.91
2022-10-22T20:07:29.143Z,100423.97
2022-10-22T20:12:30.770Z,100419.19
2022-10-22T20:17:32.256Z,100425.63
2022-10-22T20:22:33.696Z,100431.44
2022-10-22T20:27:35.263Z,100431.66
2022-10-22T20:32:38.007Z,100432.28
2022-10-22T20:37:39.407Z,100448.69
2022-10-22T20:42:41.130Z,100442.03
2022-10-22T20:47:51.821Z,100443.28
2022-10-22T20:53:00.099Z,100447.25
2022-10-22T20:58:01.524Z,100444.78
2022-10-22T21:03:02.957Z,100436.41
2022-10-22T21:08:05.175Z,100435.19
2022-10-22T21:13:06.579Z,100435.38
2022-10-22T21:18:08.666Z,100428.09
2022-10-22T21:23:10.090Z,100430.38
2022-10-22T21:28:11.442Z,100424.31
2022-10-22T21:33:13.031Z,100419.53
2022-10-22T21:38:14.376Z,100418.06
2022-10-22T21:43:17.354Z,100428.91
2022-10-22T21:48:18.744Z,100423.06
2022-10-22T21:53:20.104Z,100422.44
2022-10-22T21:58:21.483Z,100429.50
2022-10-22T22:03:23.807Z,100437.56
2022-10-22T22:08:25.992Z,100445.69
2022-10-22T22:13:27.376Z,100443.22
2022-10-22T22:18:29.773Z,100450.09
2022-10-22T22:23:31.599Z,100451.94
2022-10-22T22:28:34.784Z,100449.66
2022-10-22T22:33:36.181Z,100441.91
2022-10-22T22:38:38.513Z,100436.69
2022-10-22T22:43:39.866Z,100440.84
2022-10-22T22:48:41.234Z,100427.63
2022-10-22T22:53:42.603Z,100428.69
2022-10-22T22:58:44.432Z,100422.44
2022-10-22T23:03:56.886Z,100415.53
2022-10-22T23:08:58.689Z,100410.47
2022-10-22T23:14:02.056Z,100402.94
2022-10-22T23:19:05.246Z,100400.19
2022-10-22T23:24:10.972Z,100396.03
2022-10-22T23:29:21.458Z,100402.47
2022-10-22T23:34:24.971Z,100403.88
2022-10-22T23:39:28.321Z,100387.66
2022-10-22T23:44:29.886Z,100383.72
2022-10-22T23:49:31.512Z,100380.59
2022-10-22T23:54:32.869Z,100387.44
2022-10-22T23:59:34.371Z,100387.97
